Time;durP1;ratioP1;P1;durP2;ratioP2;P2;SDS_P1;SDS_P2;PMS_P1;PMS_P2;Temp;Humidity;BMP_temperature;BMP_pressure;BME280_temperature;BME280_humidity;BME280_pressure;Samples;Min_cycle;Max_cycle;Signal;HPM_P1;HPM_P2
2023/01/25 00:01:17;;;;;;;;;12.00;10.25;;;;;6.11;65.00;100694.78;6246121;28;96307;-65
2023/01/25 00:04:21;;;;;;;;;9.00;9.00;;;;;6.10;65.18;100690.44;6229370;28;96897;-64
2023/01/25 00:07:26;;;;;;;;;10.40;10.00;;;;;5.93;65.81;100681.34;6248891;28;96279;-65
2023/01/25 00:10:29;;;;;;;;;10.00;9.00;;;;;5.95;66.45;100683.88;6228335;28;96380;-65
2023/01/25 00:13:32;;;;;;;;;12.00;10.00;;;;;5.87;66.24;100667.69;6232448;28;96316;-64
2023/01/25 00:16:36;;;;;;;;;11.00;10.00;;;;;5.86;66.08;100674.03;6248967;28;96433;-64
2023/01/25 00:19:40;;;;;;;;;9.25;9.25;;;;;6.02;65.70;100667.06;6253388;27;96234;-64
2023/01/25 00:22:45;;;;;;;;;9.00;8.00;;;;;6.08;65.63;100671.81;6226398;28;96858;-64
2023/01/25 00:25:48;;;;;;;;;10.00;10.00;;;;;6.02;65.89;100668.88;6252636;28;96402;-64
2023/01/25 00:28:52;;;;;;;;;10.00;8.20;;;;;6.00;65.61;100677.09;6252414;28;97067;-64
2023/01/25 00:32:07;;;;;;;;;10.75;9.75;;;;;6.12;65.52;100672.34;6246817;28;96636;-64
2023/01/25 00:35:12;;;;;;;;;10.60;10.60;;;;;6.32;65.15;100670.41;6242381;28;96360;-64
2023/01/25 00:38:29;;;;;;;;;7.00;7.00;;;;;6.42;64.40;100664.00;6253333;27;97113;-66
2023/01/25 00:41:33;;;;;;;;;8.00;7.75;;;;;6.47;63.87;100664.38;6243415;27;96500;-65
2023/01/25 00:44:36;;;;;;;;;7.20;7.20;;;;;6.60;63.32;100677.38;6232972;28;96493;-64
2023/01/25 00:47:40;;;;;;;;;9.60;9.00;;;;;6.74;63.08;100671.53;6232905;28;96267;-66
2023/01/25 00:50:45;;;;;;;;;8.50;7.50;;;;;6.71;62.95;100662.91;6253785;28;96306;-63
2023/01/25 00:53:50;;;;;;;;;8.00;8.00;;;;;6.60;62.76;100666.66;6254376;28;95986;-64
2023/01/25 00:56:55;;;;;;;;;7.60;7.60;;;;;6.47;62.77;100658.19;6235607;28;96228;-64
2023/01/25 00:59:58;;;;;;;;;9.00;8.00;;;;;6.60;63.11;100655.94;6250116;28;95993;-64
2023/01/25 01:03:02;;;;;;;;;10.00;9.00;;;;;6.45;63.13;100652.16;6222334;28;97183;-65
2023/01/25 01:06:08;;;;;;;;;10.00;8.00;;;;;6.63;63.08;100646.78;6230079;28;96878;-64
2023/01/25 01:09:16;;;;;;;;;7.25;7.00;;;;;6.60;62.72;100650.59;6237116;28;96472;-64
2023/01/25 01:12:20;;;;;;;;;10.00;9.40;;;;;6.49;63.09;100648.16;6234424;27;96642;-64
2023/01/25 01:15:23;;;;;;;;;9.00;8.00;;;;;6.64;62.98;100643.97;6210384;28;96678;-64
2023/01/25 01:18:27;;;;;;;;;7.00;6.75;;;;;6.71;62.58;100633.44;6209368;28;96755;-64
2023/01/25 01:21:30;;;;;;;;;7.20;7.00;;;;;6.80;62.26;100636.03;6210158;28;98433;-65
2023/01/25 01:24:35;;;;;;;;;9.00;9.00;;;;;6.83;61.89;100634.91;6246231;27;96647;-64
2023/01/25 01:27:38;;;;;;;;;8.20;8.00;;;;;6.77;61.65;100627.47;6231816;28;96828;-65
2023/01/25 01:30:42;;;;;;;;;11.00;9.40;;;;;6.79;61.59;100612.91;6229122;28;96918;-65
2023/01/25 01:33:49;;;;;;;;;8.00;7.00;;;;;6.88;61.37;100606.63;6229642;28;98703;-65
2023/01/25 01:36:52;;;;;;;;;9.00;8.60;;;;;6.87;61.34;100588.84;6245900;28;96143;-64
2023/01/25 01:39:57;;;;;;;;;8.40;8.00;;;;;6.92;61.25;100589.22;6226984;27;96289;-64
2023/01/25 01:43:02;;;;;;;;;8.60;8.60;;;;;6.94;60.97;100587.22;6219459;27;96839;-65
2023/01/25 01:46:15;;;;;;;;;7.40;6.40;;;;;7.01;60.84;100583.91;6232573;28;96342;-65
2023/01/25 01:49:23;;;;;;;;;9.60;9.00;;;;;7.03;60.72;100585.44;6235669;27;96847;-66
2023/01/25 01:52:32;;;;;;;;;9.00;8.50;;;;;6.97;60.31;100583.38;6229783;27;96483;-66
2023/01/25 01:55:38;;;;;;;;;10.00;9.00;;;;;6.85;60.16;100584.63;6208351;28;96790;-66
2023/01/25 01:58:44;;;;;;;;;10.00;10.00;;;;;6.90;60.21;100583.16;6260356;27;96986;-64
2023/01/25 02:01:47;;;;;;;;;9.75;8.00;;;;;6.85;60.36;100582.78;6232598;28;96173;-65
2023/01/25 02:04:53;;;;;;;;;10.00;8.00;;;;;6.89;60.14;100569.94;6213508;28;96862;-65
2023/01/25 02:07:58;;;;;;;;;9.00;8.60;;;;;6.83;60.03;100563.34;6231668;28;96834;-65
2023/01/25 02:11:04;;;;;;;;;9.00;9.00;;;;;6.79;60.36;100561.16;6212629;28;96931;-65
2023/01/25 02:14:08;;;;;;;;;10.80;10.00;;;;;6.69;60.04;100560.41;6228319;28;96904;-65
2023/01/25 02:17:12;;;;;;;;;11.75;10.75;;;;;6.52;60.51;100556.75;6225558;28;98101;-66
2023/01/25 02:20:26;;;;;;;;;9.00;8.00;;;;;6.63;60.96;100558.34;6249529;27;97088;-64
2023/01/25 02:23:34;;;;;;;;;11.00;9.60;;;;;6.72;60.95;100560.91;6249190;27;96329;-64
2023/01/25 02:26:40;;;;;;;;;10.00;10.00;;;;;6.81;60.38;100557.28;6224074;28;96455;-66
2023/01/25 02:29:44;;;;;;;;;11.00;9.40;;;;;6.91;60.50;100563.41;6232696;28;96696;-64
2023/01/25 02:32:48;;;;;;;;;11.00;10.00;;;;;6.93;60.09;100566.78;6256123;27;96339;-65
2023/01/25 02:35:58;;;;;;;;;9.50;9.50;;;;;6.99;60.14;100570.66;6243534;28;96760;-65
2023/01/25 02:39:05;;;;;;;;;8.00;7.25;;;;;7.01;59.66;100570.50;6252941;28;96762;-65
2023/01/25 02:42:10;;;;;;;;;9.60;8.60;;;;;7.03;59.81;100568.50;6234639;28;96556;-64
2023/01/25 02:45:18;;;;;;;;;10.75;10.00;;;;;6.96;59.93;100563.78;6235653;28;96331;-65
2023/01/25 02:48:22;;;;;;;;;11.00;9.00;;;;;7.06;60.48;100554.78;6247395;27;97423;-65
2023/01/25 02:51:28;;;;;;;;;10.60;10.60;;;;;7.13;60.05;100564.72;6239408;27;96138;-66
2023/01/25 02:54:32;;;;;;;;;12.00;11.00;;;;;7.23;60.30;100557.38;6250489;28;96853;-65
2023/01/25 02:57:38;;;;;;;;;9.00;8.40;;;;;7.28;60.10;100570.34;6234004;28;98131;-65
2023/01/25 03:00:41;;;;;;;;;9.40;9.00;;;;;7.35;59.70;100563.31;6239460;27;96635;-64
2023/01/25 03:03:45;;;;;;;;;11.00;11.00;;;;;7.36;59.12;100555.13;6223539;28;96619;-64
2023/01/25 03:06:49;;;;;;;;;9.20;9.20;;;;;7.40;59.04;100555.63;6261621;27;96305;-65
2023/01/25 03:09:53;;;;;;;;;12.25;10.25;;;;;7.40;58.86;100550.25;6245932;27;96320;-64
2023/01/25 03:12:58;;;;;;;;;11.20;9.80;;;;;7.37;59.12;100561.31;6239880;28;96361;-65
2023/01/25 03:16:03;;;;;;;;;10.20;9.00;;;;;7.33;59.14;100543.88;6268561;27;96283;-65
2023/01/25 03:19:07;;;;;;;;;9.00;8.75;;;;;7.45;58.82;100547.09;6242944;28;96315;-65
2023/01/25 03:22:10;;;;;;;;;9.00;9.00;;;;;7.46;59.10;100556.84;6242718;27;96224;-65
2023/01/25 03:25:14;;;;;;;;;14.00;11.60;;;;;7.50;58.63;100560.88;6265802;27;96857;-65
2023/01/25 03:28:29;;;;;;;;;11.00;9.00;;;;;7.46;58.54;100560.34;6228651;28;96565;-65
2023/01/25 03:31:32;;;;;;;;;12.00;10.50;;;;;7.37;58.62;100550.59;6222308;27;96641;-65
2023/01/25 03:34:36;;;;;;;;;12.00;11.00;;;;;7.35;59.05;100545.38;6241519;28;96695;-65
2023/01/25 03:37:39;;;;;;;;;11.00;10.40;;;;;7.39;59.43;100552.09;6251018;27;96286;-65
2023/01/25 03:40:43;;;;;;;;;10.00;10.00;;;;;7.39;59.36;100541.38;6225404;28;98510;-65
2023/01/25 03:43:47;;;;;;;;;11.00;11.00;;;;;7.36;59.00;100546.22;6225388;28;96670;-64
2023/01/25 03:46:53;;;;;;;;;13.00;12.00;;;;;7.38;59.38;100542.38;6242794;28;96365;-65
2023/01/25 03:49:56;;;;;;;;;11.00;10.00;;;;;7.36;59.56;100544.38;6239122;28;96363;-65
2023/01/25 03:53:02;;;;;;;;;15.00;13.00;;;;;7.35;59.66;100534.66;6240423;28;96463;-65
2023/01/25 03:56:08;;;;;;;;;14.50;13.00;;;;;7.38;59.78;100538.84;6243000;27;96778;-66
2023/01/25 03:59:14;;;;;;;;;12.75;11.00;;;;;7.35;59.69;100531.13;6240589;28;96491;-66
2023/01/25 04:02:19;;;;;;;;;11.20;10.00;;;;;7.36;59.71;100533.66;6258253;27;96763;-65
2023/01/25 04:05:23;;;;;;;;;12.40;11.40;;;;;7.34;59.96;100538.31;6259532;28;96606;-65
2023/01/25 04:08:27;;;;;;;;;10.40;10.00;;;;;7.33;59.80;100525.91;6243324;28;96315;-65
2023/01/25 04:11:30;;;;;;;;;12.00;11.00;;;;;7.33;59.96;100533.16;6227318;28;97034;-65
2023/01/25 04:14:36;;;;;;;;;13.40;10.40;;;;;7.31;60.02;100514.50;6232631;28;96877;-67
2023/01/25 04:17:51;;;;;;;;;13.00;13.00;;;;;7.37;59.97;100524.59;6267925;27;96430;-65
2023/01/25 04:20:58;;;;;;;;;13.00;11.40;;;;;7.26;60.19;100511.47;6263967;27;96400;-65
2023/01/25 04:24:01;;;;;;;;;11.20;11.00;;;;;7.28;60.29;100517.50;6252455;27;96364;-65
2023/01/25 04:27:08;;;;;;;;;12.00;10.00;;;;;7.27;60.60;100496.22;6240206;28;96361;-66
2023/01/25 04:30:26;;;;;;;;;11.00;10.40;;;;;7.22;60.45;100506.59;6242381;27;96790;-65
2023/01/25 04:33:30;;;;;;;;;12.50;11.00;;;;;7.21;60.54;100502.22;6238109;28;96362;-64
2023/01/25 04:36:34;;;;;;;;;10.00;9.60;;;;;7.17;60.64;100504.38;6249472;27;96306;-66
2023/01/25 04:39:38;;;;;;;;;13.20;13.00;;;;;7.15;60.68;100495.66;6247758;28;96404;-64
2023/01/25 04:42:41;;;;;;;;;10.00;9.25;;;;;7.19;60.79;100496.16;6224144;27;98417;-65
2023/01/25 04:45:46;;;;;;;;;10.00;9.00;;;;;7.25;60.41;100495.53;6242812;27;96342;-65
2023/01/25 04:48:57;;;;;;;;;13.00;11.00;;;;;7.32;60.44;100497.41;6260015;27;98932;-65
2023/01/25 04:52:00;;;;;;;;;14.00;10.50;;;;;7.36;60.23;100500.59;6242439;28;96271;-65
2023/01/25 04:55:04;;;;;;;;;13.00;10.00;;;;;7.34;59.83;100499.91;6252947;28;96335;-65
2023/01/25 04:58:14;;;;;;;;;13.00;12.00;;;;;7.24;60.10;100492.00;6240861;28;96305;-66
2023/01/25 05:01:19;;;;;;;;;11.60;10.00;;;;;7.19;59.97;100496.16;6248667;28;96375;-66
2023/01/25 05:04:24;;;;;;;;;10.40;9.00;;;;;7.17;60.10;100490.13;6236668;28;96883;-65
2023/01/25 05:07:29;;;;;;;;;13.00;12.00;;;;;7.22;59.99;100485.13;6260730;28;96273;-66
2023/01/25 05:10:32;;;;;;;;;12.00;11.00;;;;;7.26;59.17;100489.16;6240766;27;98264;-65
2023/01/25 05:13:56;;;;;;;;;9.00;8.00;;;;;7.27;58.98;100493.53;6238474;27;96599;-66
2023/01/25 05:17:08;;;;;;;;;10.00;9.25;;;;;7.17;59.05;100495.50;6257583;27;96763;-65
2023/01/25 05:20:12;;;;;;;;;10.20;9.00;;;;;7.19;58.93;100485.44;6244541;28;96355;-65
2023/01/25 05:23:16;;;;;;;;;9.60;8.60;;;;;7.20;59.22;100489.81;6246090;27;96776;-65
2023/01/25 05:29:44;;;;;;;;;10.25;10.00;;;;;7.27;59.25;100480.97;6243832;28;97002;-66
2023/01/25 05:32:49;;;;;;;;;11.00;9.40;;;;;7.29;58.88;100489.66;6258748;28;96972;-66
2023/01/25 05:35:55;;;;;;;;;11.80;10.00;;;;;7.27;58.37;100480.13;6255876;27;96753;-66
2023/01/25 05:38:59;;;;;;;;;7.50;7.50;;;;;7.28;58.85;100477.25;6272164;27;96467;-65
2023/01/25 05:42:10;;;;;;;;;11.00;8.00;;;;;7.25;58.37;100476.75;6279111;27;96287;-66
2023/01/25 05:45:13;;;;;;;;;12.20;11.00;;;;;7.12;58.58;100465.63;6274641;27;96272;-65
2023/01/25 05:48:21;;;;;;;;;7.20;7.20;;;;;7.18;58.43;100481.94;6221350;28;96799;-65
2023/01/25 05:51:25;;;;;;;;;11.00;10.00;;;;;7.16;58.43;100465.16;6252996;27;96206;-66
2023/01/25 05:54:28;;;;;;;;;9.40;8.00;;;;;7.17;58.43;100479.41;6259358;27;96864;-66
2023/01/25 05:57:37;;;;;;;;;9.20;8.20;;;;;7.16;58.52;100473.19;6242576;27;96278;-66
2023/01/25 06:00:40;;;;;;;;;10.25;9.25;;;;;7.16;58.53;100478.56;6191637;28;96942;-65
2023/01/25 06:03:49;;;;;;;;;9.50;8.50;;;;;7.20;58.23;100479.06;6186584;28;96632;-65
2023/01/25 06:06:52;;;;;;;;;8.00;7.00;;;;;7.20;58.13;100479.06;6202801;28;96254;-66
2023/01/25 06:09:56;;;;;;;;;8.25;7.00;;;;;7.25;58.02;100476.75;6193871;28;96922;-65
2023/01/25 06:12:59;;;;;;;;;7.00;7.00;;;;;7.24;57.84;100469.69;6185678;28;97034;-66
2023/01/25 06:16:03;;;;;;;;;11.00;9.40;;;;;7.20;57.51;100479.06;6202576;28;97511;-66
2023/01/25 06:19:31;;;;;;;;;8.00;7.80;;;;;7.19;57.65;100482.75;6212024;28;96430;-65
2023/01/25 06:22:49;;;;;;;;;5.60;5.60;;;;;7.20;57.84;100485.28;6195417;28;96767;-66
2023/01/25 06:25:54;;;;;;;;;9.00;7.60;;;;;7.20;57.71;100484.44;6208747;28;96597;-66
2023/01/25 06:28:57;;;;;;;;;8.40;6.40;;;;;7.25;57.70;100479.44;6204250;28;96825;-66
2023/01/25 06:32:00;;;;;;;;;8.00;7.40;;;;;7.25;57.48;100476.75;6206835;28;96601;-66
2023/01/25 06:35:06;;;;;;;;;8.00;7.00;;;;;7.16;57.59;100459.78;6208807;28;96514;-67
2023/01/25 06:38:09;;;;;;;;;9.50;9.50;;;;;7.16;57.36;100467.84;6205161;28;96390;-67
2023/01/25 06:41:13;;;;;;;;;10.00;9.00;;;;;7.21;57.67;100462.81;6209679;28;96204;-66
2023/01/25 06:44:16;;;;;;;;;10.00;8.40;;;;;7.24;57.51;100462.50;6242188;28;97293;-66
2023/01/25 06:47:20;;;;;;;;;7.20;6.20;;;;;7.33;57.59;100463.38;6243539;28;96523;-66
2023/01/25 06:50:24;;;;;;;;;11.00;9.40;;;;;7.39;56.80;100457.34;6209883;28;96302;-66
2023/01/25 06:53:30;;;;;;;;;7.75;6.25;;;;;7.41;56.82;100458.03;6207446;28;96276;-67
2023/01/25 06:56:33;;;;;;;;;9.00;7.40;;;;;7.46;57.30;100461.06;6209273;28;96423;-66
2023/01/25 06:59:37;;;;;;;;;8.60;6.60;;;;;7.52;57.16;100452.38;6259448;28;96276;-66
2023/01/25 07:02:40;;;;;;;;;9.00;8.00;;;;;7.57;57.51;100454.56;6259853;28;96384;-66
2023/01/25 07:05:45;;;;;;;;;8.00;8.00;;;;;7.54;57.40;100441.44;6253176;28;96519;-65
2023/01/25 07:08:49;;;;;;;;;6.80;6.80;;;;;7.69;57.14;100447.84;6259458;28;96305;-66
2023/01/25 07:11:53;;;;;;;;;7.00;7.00;;;;;7.71;56.86;100454.75;6258900;28;96791;-65
2023/01/25 07:14:56;;;;;;;;;5.75;5.75;;;;;7.77;56.79;100462.13;6258850;28;97165;-66
2023/01/25 07:18:00;;;;;;;;;8.00;7.80;;;;;7.77;56.54;100458.63;6254513;28;97219;-66
2023/01/25 07:21:21;;;;;;;;;6.80;6.80;;;;;7.79;55.58;100457.44;6256984;28;96877;-66
2023/01/25 07:24:25;;;;;;;;;9.00;8.00;;;;;7.79;55.52;100448.53;6237736;28;96662;-66
2023/01/25 07:27:33;;;;;;;;;6.00;6.00;;;;;7.79;55.59;100444.03;6254291;28;96859;-66
2023/01/25 07:30:37;;;;;;;;;8.00;7.00;;;;;7.81;55.82;100439.34;6250922;28;97070;-66
2023/01/25 07:33:40;;;;;;;;;6.00;6.00;;;;;7.88;56.13;100447.53;6252742;28;96312;-66
2023/01/25 07:36:46;;;;;;;;;8.00;7.00;;;;;7.95;56.17;100453.09;6250676;28;96239;-66
2023/01/25 07:39:49;;;;;;;;;7.00;7.00;;;;;7.99;56.09;100449.91;6235359;28;96867;-66
2023/01/25 07:42:53;;;;;;;;;8.00;7.60;;;;;8.02;55.91;100444.19;6255654;28;96269;-66
2023/01/25 07:46:01;;;;;;;;;8.00;8.00;;;;;8.05;56.04;100437.66;6217174;28;96535;-66
2023/01/25 07:49:05;;;;;;;;;9.00;7.00;;;;;8.08;54.96;100426.56;6253733;28;96268;-65
2023/01/25 07:52:10;;;;;;;;;7.00;6.00;;;;;8.13;54.77;100426.91;6251143;28;96286;-67
2023/01/25 07:55:14;;;;;;;;;9.00;7.50;;;;;8.17;55.13;100425.56;6233341;27;96884;-68
2023/01/25 07:58:17;;;;;;;;;8.00;8.00;;;;;8.14;54.93;100420.53;6238229;28;96869;-66
2023/01/25 08:01:23;;;;;;;;;7.00;7.00;;;;;8.09;54.97;100426.41;6243930;27;96351;-68
2023/01/25 08:04:26;;;;;;;;;7.25;5.00;;;;;8.12;54.64;100420.69;6256930;27;96784;-67
2023/01/25 08:07:31;;;;;;;;;10.50;9.00;;;;;8.15;54.89;100414.16;6257447;27;96825;-67
2023/01/25 08:10:34;;;;;;;;;7.00;6.75;;;;;8.21;54.21;100414.31;6256351;28;96331;-67
2023/01/25 08:13:37;;;;;;;;;9.00;8.00;;;;;8.30;54.64;100417.88;6256588;27;96837;-66
2023/01/25 08:16:40;;;;;;;;;10.00;9.00;;;;;8.35;54.81;100404.78;6240219;28;96803;-67
2023/01/25 08:19:44;;;;;;;;;9.00;9.00;;;;;8.28;54.72;100387.59;6256680;28;96325;-65
2023/01/25 08:22:48;;;;;;;;;7.60;7.60;;;;;8.42;54.48;100408.44;6254260;28;97037;-65
2023/01/25 08:25:52;;;;;;;;;7.00;7.00;;;;;8.44;54.49;100405.59;6252065;27;96423;-66
2023/01/25 08:28:56;;;;;;;;;9.80;8.80;;;;;8.44;54.66;100398.38;6253626;27;96272;-66
2023/01/25 08:32:03;;;;;;;;;10.40;10.40;;;;;8.49;54.04;100403.22;6254149;28;96353;-66
2023/01/25 08:35:07;;;;;;;;;8.00;7.80;;;;;8.35;54.40;100369.84;6255672;28;96279;-66
2023/01/25 08:38:13;;;;;;;;;10.25;9.25;;;;;8.47;54.30;100394.47;6259479;27;96692;-66
2023/01/25 08:41:18;;;;;;;;;7.40;7.00;;;;;8.48;53.77;100390.78;6254525;28;96262;-66
2023/01/25 08:44:24;;;;;;;;;7.00;6.00;;;;;8.58;53.98;100386.91;6251366;27;96770;-66
2023/01/25 08:47:27;;;;;;;;;8.00;7.00;;;;;8.57;52.94;100385.22;6249795;27;96758;-66
2023/01/25 08:50:31;;;;;;;;;8.40;7.40;;;;;8.56;53.11;100394.28;6251929;28;96230;-66
2023/01/25 08:53:35;;;;;;;;;7.40;6.40;;;;;8.61;53.71;100389.22;6250216;27;96357;-66
2023/01/25 08:56:40;;;;;;;;;10.00;9.00;;;;;8.60;53.45;100390.25;6225558;27;96720;-68
2023/01/25 08:59:45;;;;;;;;;9.00;8.00;;;;;8.69;53.77;100394.59;6228873;28;96251;-66
2023/01/25 09:02:48;;;;;;;;;10.00;8.50;;;;;8.62;53.94;100376.63;6250685;28;96472;-65
2023/01/25 09:05:54;;;;;;;;;8.25;8.25;;;;;8.81;54.20;100394.22;6250519;27;96298;-66
2023/01/25 09:08:59;;;;;;;;;9.80;8.00;;;;;8.86;54.31;100384.63;6254676;28;96238;-65
2023/01/25 09:12:03;;;;;;;;;9.00;9.00;;;;;8.86;53.55;100390.00;6234160;27;96652;-65
2023/01/25 09:15:07;;;;;;;;;12.00;11.00;;;;;8.87;53.72;100385.47;6231550;28;96859;-66
2023/01/25 09:18:11;;;;;;;;;10.25;9.25;;;;;8.95;53.81;100377.34;6253830;28;96493;-67
2023/01/25 09:21:16;;;;;;;;;12.60;12.00;;;;;8.98;53.30;100374.31;6237297;28;97304;-67
2023/01/25 09:24:21;;;;;;;;;12.00;11.00;;;;;8.83;53.78;100373.38;6263259;27;98713;-67
2023/01/25 09:27:24;;;;;;;;;11.00;11.00;;;;;8.74;54.00;100363.66;6245818;27;96368;-67
2023/01/25 09:30:28;;;;;;;;;10.00;9.00;;;;;8.57;53.61;100357.50;6258229;28;96465;-66
2023/01/25 09:33:57;;;;;;;;;9.75;9.00;;;;;8.63;54.44;100359.50;6255645;28;96236;-66
2023/01/25 09:37:00;;;;;;;;;9.00;8.00;;;;;8.72;54.12;100355.75;6254731;27;96221;-65
2023/01/25 09:40:13;;;;;;;;;8.50;7.50;;;;;8.79;53.67;100354.06;6258500;28;96274;-66
2023/01/25 09:43:32;;;;;;;;;9.00;8.00;;;;;8.85;53.57;100350.66;6257451;28;96327;-67
2023/01/25 09:46:41;;;;;;;;;8.40;7.40;;;;;8.97;53.91;100346.59;6244033;28;96380;-66
2023/01/25 09:50:00;;;;;;;;;11.00;11.00;;;;;9.02;53.28;100335.28;6258203;28;96262;-65
2023/01/25 09:53:24;;;;;;;;;7.60;7.00;;;;;8.88;52.74;100325.28;6257336;28;96382;-66
2023/01/25 09:56:33;;;;;;;;;8.00;7.00;;;;;9.01;52.82;100333.59;6222655;27;97514;-67
2023/01/25 09:59:39;;;;;;;;;10.00;8.00;;;;;9.11;52.44;100313.53;6256642;28;96290;-66
2023/01/25 10:02:50;;;;;;;;;13.20;13.20;;;;;8.66;52.84;100316.97;6251532;28;96485;-66
2023/01/25 10:05:58;;;;;;;;;11.00;9.50;;;;;8.53;53.76;100292.50;6250727;27;96213;-65
2023/01/25 10:09:13;;;;;;;;;9.20;9.20;;;;;8.75;53.57;100304.31;6256359;28;96622;-65
2023/01/25 10:12:21;;;;;;;;;11.20;11.00;;;;;8.83;54.46;100295.38;6254733;28;96922;-65
2023/01/25 10:15:32;;;;;;;;;15.00;14.00;;;;;9.04;53.93;100301.00;6250911;28;96577;-66
2023/01/25 10:18:40;;;;;;;;;14.00;13.40;;;;;9.25;54.29;100284.19;6250174;27;97341;-65
2023/01/25 10:21:49;;;;;;;;;14.00;13.00;;;;;9.45;54.14;100282.69;6247992;27;96356;-66
2023/01/25 10:25:45;;;;;;;;;15.00;13.40;;;;;9.51;52.79;100271.19;6255882;27;96485;-66
2023/01/25 10:28:57;;;;;;;;;20.00;17.00;;;;;9.43;52.69;100264.00;6252656;27;96400;-66
2023/01/25 10:32:17;;;;;;;;;17.60;16.00;;;;;9.38;53.07;100255.63;6255522;28;96418;-66
2023/01/25 10:35:26;;;;;;;;;21.80;21.00;;;;;9.56;53.07;100268.81;6248596;28;96410;-66
2023/01/25 10:38:42;;;;;;;;;18.00;17.00;;;;;9.70;52.17;100261.78;6252793;27;97124;-66
2023/01/25 10:41:49;;;;;;;;;19.80;18.00;;;;;9.76;52.61;100244.88;6252454;28;96272;-66
2023/01/25 10:44:54;;;;;;;;;20.00;18.50;;;;;9.76;51.35;100247.59;6253099;28;96453;-66
2023/01/25 10:48:02;;;;;;;;;16.00;14.00;;;;;9.50;51.14;100246.13;6254669;28;96303;-66
2023/01/25 10:51:06;;;;;;;;;17.20;16.00;;;;;9.44;51.39;100249.53;6233235;28;98501;-66
2023/01/25 10:54:15;;;;;;;;;21.00;18.60;;;;;9.53;52.20;100248.44;6251928;27;96927;-66
2023/01/25 10:57:21;;;;;;;;;20.80;18.20;;;;;9.41;52.22;100243.69;6254299;28;96306;-66
2023/01/25 11:00:30;;;;;;;;;18.00;16.00;;;;;9.50;52.57;100246.13;6237903;28;96343;-66
2023/01/25 11:03:37;;;;;;;;;15.25;13.00;;;;;9.63;51.04;100242.00;6251967;28;96308;-66
2023/01/25 11:06:49;;;;;;;;;12.50;11.00;;;;;9.71;50.56;100240.06;6253434;28;96283;-66
2023/01/25 11:09:52;;;;;;;;;13.40;12.20;;;;;9.74;51.02;100236.16;6252362;28;96649;-65
2023/01/25 11:13:26;;;;;;;;;15.00;13.00;;;;;9.62;50.47;100226.84;6252838;27;96514;-66
2023/01/25 11:16:37;;;;;;;;;15.40;14.40;;;;;9.74;50.63;100219.97;6248161;27;97459;-66
2023/01/25 11:19:41;;;;;;;;;17.00;14.00;;;;;9.73;50.65;100218.31;6246368;27;96956;-66
2023/01/25 11:22:51;;;;;;;;;17.80;15.80;;;;;9.66;50.85;100209.31;6248980;28;96813;-65
2023/01/25 11:26:11;;;;;;;;;16.80;15.40;;;;;9.64;51.29;100204.09;6252887;28;96216;-66
2023/01/25 11:29:17;;;;;;;;;14.00;13.20;;;;;9.66;51.38;100198.53;6253130;28;96456;-65
2023/01/25 11:32:23;;;;;;;;;15.00;13.00;;;;;9.57;50.95;100198.63;6251217;28;96458;-67
2023/01/25 11:35:33;;;;;;;;;16.40;15.00;;;;;9.56;51.51;100194.25;6251329;28;96219;-66
2023/01/25 11:38:43;;;;;;;;;16.40;13.00;;;;;9.56;51.63;100191.56;6250447;27;96268;-66
2023/01/25 11:41:59;;;;;;;;;15.50;14.25;;;;;9.67;51.25;100184.06;6253509;28;96396;-66
2023/01/25 11:45:19;;;;;;;;;14.00;12.60;;;;;9.58;50.97;100183.28;6251477;28;96311;-66
2023/01/25 11:48:45;;;;;;;;;13.00;12.00;;;;;9.34;50.90;100167.38;6252226;28;96460;-66
2023/01/25 11:51:54;;;;;;;;;14.50;12.00;;;;;9.10;50.64;100147.75;6253225;28;96921;-66
2023/01/25 11:55:06;;;;;;;;;10.40;9.60;;;;;9.23;50.84;100155.22;6250494;27;96409;-65
2023/01/25 11:58:25;;;;;;;;;13.40;12.00;;;;;9.27;51.53;100153.81;6251735;28;96391;-65
2023/01/25 12:01:38;;;;;;;;;12.00;11.00;;;;;9.29;51.78;100154.47;6250061;28;96310;-66
2023/01/25 12:05:02;;;;;;;;;12.50;11.00;;;;;9.36;52.02;100151.88;6252808;27;96176;-66
2023/01/25 12:08:33;;;;;;;;;10.60;9.00;;;;;9.36;51.30;100146.50;6247716;28;97031;-65
2023/01/25 12:11:50;;;;;;;;;9.20;8.00;;;;;9.48;51.59;100139.66;6244142;28;96376;-67
2023/01/25 12:15:21;;;;;;;;;11.00;11.00;;;;;9.52;51.60;100136.41;6246740;28;96541;-66
2023/01/25 12:18:45;;;;;;;;;13.00;11.20;;;;;9.53;51.18;100132.69;6248226;28;96361;-65
2023/01/25 12:22:08;;;;;;;;;12.00;11.00;;;;;9.34;51.26;100122.44;6244719;27;96238;-67
2023/01/25 12:25:25;;;;;;;;;15.50;14.00;;;;;9.29;51.33;100121.31;6247203;27;97006;-66
2023/01/25 12:28:34;;;;;;;;;12.00;12.00;;;;;8.91;51.21;100115.13;6246772;28;96221;-67
2023/01/25 12:31:44;;;;;;;;;14.00;13.00;;;;;8.70;52.01;100108.56;6243062;28;97032;-67
2023/01/25 12:34:57;;;;;;;;;16.00;14.50;;;;;8.75;51.76;100112.59;6229301;28;96650;-66
2023/01/25 12:38:04;;;;;;;;;15.20;13.60;;;;;8.85;52.40;100097.84;6250603;28;97523;-66
2023/01/25 12:41:20;;;;;;;;;13.00;12.50;;;;;8.88;52.11;100091.28;6245182;27;96797;-67
2023/01/25 12:44:27;;;;;;;;;14.00;12.00;;;;;8.71;52.06;100090.59;6244356;28;96337;-68
2023/01/25 12:47:37;;;;;;;;;14.20;13.00;;;;;8.67;51.84;100075.84;6245310;28;96305;-67
2023/01/25 12:50:45;;;;;;;;;8.20;7.20;;;;;8.45;49.59;100082.91;6233760;28;96408;-67
2023/01/25 12:53:53;;;;;;;;;14.00;13.00;;;;;8.38;51.64;100078.41;6249206;28;96886;-66
2023/01/25 12:57:08;;;;;;;;;13.75;13.00;;;;;8.23;52.65;100081.84;6230764;28;97090;-67
2023/01/25 13:00:22;;;;;;;;;10.00;9.00;;;;;7.80;52.97;100080.56;6266719;27;96478;-65
2023/01/25 13:03:31;;;;;;;;;12.60;10.60;;;;;7.84;53.75;100078.34;6232721;28;96716;-66
2023/01/25 13:06:43;;;;;;;;;14.00;13.00;;;;;7.87;53.81;100066.44;6249697;28;96714;-66
2023/01/25 13:09:57;;;;;;;;;13.00;12.00;;;;;8.01;53.75;100069.22;6251887;28;96271;-66
2023/01/25 13:13:03;;;;;;;;;12.00;11.00;;;;;8.14;53.48;100069.47;6253361;28;96316;-65
2023/01/25 13:16:35;;;;;;;;;12.00;11.00;;;;;8.14;52.69;100065.94;6234930;28;96357;-67
2023/01/25 13:19:41;;;;;;;;;10.75;9.25;;;;;8.19;52.40;100067.09;6250997;28;96524;-66
2023/01/25 13:23:00;;;;;;;;;6.00;6.00;;;;;8.26;50.36;100053.75;6248600;28;96596;-66
2023/01/25 13:26:52;;;;;;;;;5.25;5.25;;;;;8.05;49.23;100058.94;6250218;28;96436;-65
2023/01/25 13:29:59;;;;;;;;;6.00;6.00;;;;;8.18;50.09;100051.13;6171057;28;96803;-66
2023/01/25 13:33:05;;;;;;;;;8.75;7.75;;;;;7.92;48.84;100051.44;6235446;27;96210;-66
2023/01/25 13:36:45;;;;;;;;;10.00;9.00;;;;;7.69;49.07;100048.72;6246794;27;96383;-66
2023/01/25 13:39:50;;;;;;;;;10.00;10.00;;;;;7.61;49.06;100051.47;6243894;28;96417;-66
2023/01/25 13:43:00;;;;;;;;;8.60;8.60;;;;;7.68;49.16;100048.88;6247508;28;96384;-66
2023/01/25 13:46:08;;;;;;;;;10.60;10.60;;;;;7.71;48.92;100040.50;6245448;28;96382;-65
2023/01/25 13:49:22;;;;;;;;;9.00;8.00;;;;;7.65;49.07;100042.03;6249434;28;97567;-65
2023/01/25 13:52:29;;;;;;;;;9.00;9.00;;;;;7.56;49.53;100034.19;6248796;28;96928;-66
2023/01/25 13:55:40;;;;;;;;;9.00;9.00;;;;;7.27;49.91;100030.28;6246359;27;97172;-66
2023/01/25 13:58:46;;;;;;;;;11.00;10.00;;;;;7.35;50.46;100026.72;6233410;27;96709;-65
2023/01/25 14:01:52;;;;;;;;;12.80;11.80;;;;;7.26;51.24;100022.41;6244549;28;96502;-65
2023/01/25 14:04:57;;;;;;;;;10.00;10.00;;;;;7.08;51.09;100029.84;6225057;28;96404;-66
2023/01/25 14:08:00;;;;;;;;;11.50;11.00;;;;;7.24;51.91;100022.56;6253546;27;96304;-67
2023/01/25 14:11:05;;;;;;;;;10.00;9.20;;;;;7.36;52.18;100010.47;6242902;28;96326;-66
2023/01/25 14:14:18;;;;;;;;;8.00;8.00;;;;;7.39;51.56;100010.09;6244642;27;96217;-68
2023/01/25 14:17:24;;;;;;;;;9.00;8.00;;;;;7.40;51.25;99997.53;6234599;27;96256;-66
2023/01/25 14:20:27;;;;;;;;;8.75;7.75;;;;;7.31;51.27;99994.06;6244471;28;96379;-66
2023/01/25 14:23:31;;;;;;;;;10.00;9.00;;;;;7.39;51.22;100004.75;6242359;27;96667;-66
2023/01/25 14:26:36;;;;;;;;;9.40;8.40;;;;;7.45;50.45;100003.22;6239694;28;96559;-65
2023/01/25 14:29:40;;;;;;;;;8.00;8.00;;;;;7.54;50.65;99996.78;6235403;28;96283;-66
2023/01/25 14:32:45;;;;;;;;;11.20;10.80;;;;;7.66;50.70;99981.97;6237362;28;96866;-65
2023/01/25 14:35:49;;;;;;;;;15.20;14.20;;;;;7.78;50.38;99982.41;6238845;28;96238;-66